sensor_id;sensor_type;location;lat;lon;timestamp;pressure;altitude;pressure_sealevel;temperature;humidity
36242;BME280;22283;42.748;12.732;2023-07-13T00:04:23;97920.38;;;26.42;42.64
36242;BME280;22283;42.748;12.732;2023-07-13T00:09:25;97922.19;;;26.55;41.98
36242;BME280;22283;42.748;12.732;2023-07-13T00:14:27;97896.78;;;26.74;41.27
36242;BME280;22283;42.748;12.732;2023-07-13T00:19:28;97896.66;;;26.87;41.36
36242;BME280;22283;42.748;12.732;2023-07-13T00:24:29;97892.88;;;26.88;41.39
36242;BME280;22283;42.748;12.732;2023-07-13T00:29:30;97895.00;;;26.86;41.50
36242;BME280;22283;42.748;12.732;2023-07-13T00:34:31;97900.00;;;26.89;41.14
36242;BME280;22283;42.748;12.732;2023-07-13T00:39:33;97901.22;;;26.93;41.08
36242;BME280;22283;42.748;12.732;2023-07-13T00:44:34;97899.16;;;26.89;40.81
36242;BME280;22283;42.748;12.732;2023-07-13T00:49:36;97904.09;;;26.98;40.52
36242;BME280;22283;42.748;12.732;2023-07-13T00:54:40;97908.63;;;27.05;40.19
36242;BME280;22283;42.748;12.732;2023-07-13T00:59:44;97921.59;;;27.03;40.47
36242;BME280;22283;42.748;12.732;2023-07-13T01:04:46;97920.81;;;26.95;40.13
36242;BME280;22283;42.748;12.732;2023-07-13T01:09:47;97936.22;;;27.02;40.02
36242;BME280;22283;42.748;12.732;2023-07-13T01:14:47;97957.50;;;27.05;39.26
36242;BME280;22283;42.748;12.732;2023-07-13T01:19:48;97951.38;;;26.84;40.52
36242;BME280;22283;42.748;12.732;2023-07-13T01:24:49;97975.94;;;26.96;38.93
36242;BME280;22283;42.748;12.732;2023-07-13T01:29:50;97981.69;;;27.13;37.74
36242;BME280;22283;42.748;12.732;2023-07-13T01:34:53;97973.72;;;27.18;37.93
36242;BME280;22283;42.748;12.732;2023-07-13T01:39:57;97979.13;;;27.18;37.80
36242;BME280;22283;42.748;12.732;2023-07-13T01:44:57;97989.41;;;27.09;38.63
36242;BME280;22283;42.748;12.732;2023-07-13T01:49:58;97976.88;;;26.83;39.77
36242;BME280;22283;42.748;12.732;2023-07-13T01:55:00;97972.06;;;26.54;39.35
36242;BME280;22283;42.748;12.732;2023-07-13T02:00:03;97966.69;;;26.47;39.10
36242;BME280;22283;42.748;12.732;2023-07-13T02:05:16;97975.69;;;26.34;39.82
36242;BME280;22283;42.748;12.732;2023-07-13T02:10:17;97968.41;;;26.28;39.80
36242;BME280;22283;42.748;12.732;2023-07-13T02:15:18;97956.56;;;26.22;39.00
36242;BME280;22283;42.748;12.732;2023-07-13T02:20:19;97978.16;;;26.49;37.79
36242;BME280;22283;42.748;12.732;2023-07-13T02:25:19;97962.09;;;27.04;36.30
36242;BME280;22283;42.748;12.732;2023-07-13T02:30:22;97960.38;;;27.10;36.25
36242;BME280;22283;42.748;12.732;2023-07-13T02:35:28;97943.41;;;27.21;36.26
36242;BME280;22283;42.748;12.732;2023-07-13T02:40:29;97955.09;;;27.21;36.22
36242;BME280;22283;42.748;12.732;2023-07-13T02:45:30;97945.59;;;27.31;35.98
36242;BME280;22283;42.748;12.732;2023-07-13T02:50:30;97927.41;;;27.31;36.25
36242;BME280;22283;42.748;12.732;2023-07-13T02:55:31;97912.56;;;27.34;36.31
36242;BME280;22283;42.748;12.732;2023-07-13T03:00:32;97912.03;;;27.43;36.27
36242;BME280;22283;42.748;12.732;2023-07-13T03:05:33;97909.63;;;27.54;36.08
36242;BME280;22283;42.748;12.732;2023-07-13T03:10:34;97916.56;;;27.50;36.28
36242;BME280;22283;42.748;12.732;2023-07-13T03:15:35;97907.97;;;27.53;36.30
36242;BME280;22283;42.748;12.732;2023-07-13T03:20:37;97917.78;;;27.54;36.26
36242;BME280;22283;42.748;12.732;2023-07-13T03:25:38;97918.00;;;27.52;36.38
36242;BME280;22283;42.748;12.732;2023-07-13T03:30:39;97921.75;;;27.51;36.32
36242;BME280;22283;42.748;12.732;2023-07-13T03:35:40;97940.72;;;27.58;36.37
36242;BME280;22283;42.748;12.732;2023-07-13T03:40:42;97929.09;;;27.51;36.73
36242;BME280;22283;42.748;12.732;2023-07-13T03:45:43;97939.44;;;27.60;36.73
36242;BME280;22283;42.748;12.732;2023-07-13T03:50:44;97940.47;;;27.59;36.40
36242;BME280;22283;42.748;12.732;2023-07-13T03:55:45;97943.44;;;27.58;36.59
36242;BME280;22283;42.748;12.732;2023-07-13T04:00:46;97955.38;;;27.57;36.51
36242;BME280;22283;42.748;12.732;2023-07-13T04:05:47;97960.88;;;27.68;36.53
36242;BME280;22283;42.748;12.732;2023-07-13T04:10:47;97968.16;;;27.75;36.42
36242;BME280;22283;42.748;12.732;2023-07-13T04:15:48;97967.97;;;27.69;36.59
36242;BME280;22283;42.748;12.732;2023-07-13T04:20:50;97973.16;;;27.78;36.84
36242;BME280;22283;42.748;12.732;2023-07-13T04:25:52;97956.41;;;27.81;36.61
36242;BME280;22283;42.748;12.732;2023-07-13T04:30:54;97964.44;;;28.06;36.49
36242;BME280;22283;42.748;12.732;2023-07-13T04:35:55;97948.00;;;28.31;36.63
36242;BME280;22283;42.748;12.732;2023-07-13T04:41:01;97936.22;;;28.67;36.29
36242;BME280;22283;42.748;12.732;2023-07-13T04:46:11;97929.47;;;29.23;35.71
36242;BME280;22283;42.748;12.732;2023-07-13T04:51:12;97918.03;;;29.73;35.16
36242;BME280;22283;42.748;12.732;2023-07-13T04:56:13;97917.53;;;30.28;34.00
36242;BME280;22283;42.748;12.732;2023-07-13T05:01:13;97903.69;;;30.47;33.78
36242;BME280;22283;42.748;12.732;2023-07-13T05:06:14;97901.94;;;31.03;33.35
36242;BME280;22283;42.748;12.732;2023-07-13T05:11:15;97897.09;;;31.44;33.14
36242;BME280;22283;42.748;12.732;2023-07-13T05:16:16;97917.53;;;31.58;32.56
36242;BME280;22283;42.748;12.732;2023-07-13T05:21:16;97922.34;;;31.90;32.25
36242;BME280;22283;42.748;12.732;2023-07-13T05:26:17;97938.22;;;32.37;32.04
36242;BME280;22283;42.748;12.732;2023-07-13T05:31:18;97943.31;;;32.77;31.22
36242;BME280;22283;42.748;12.732;2023-07-13T05:36:19;97939.69;;;33.36;30.81
36242;BME280;22283;42.748;12.732;2023-07-13T05:41:20;97935.56;;;33.70;30.37
36242;BME280;22283;42.748;12.732;2023-07-13T05:46:21;97934.38;;;34.09;30.23
36242;BME280;22283;42.748;12.732;2023-07-13T05:51:21;97953.28;;;34.05;30.10
36242;BME280;22283;42.748;12.732;2023-07-13T05:56:22;97956.03;;;34.00;29.71
36242;BME280;22283;42.748;12.732;2023-07-13T06:01:23;97975.88;;;34.22;30.06
36242;BME280;22283;42.748;12.732;2023-07-13T06:06:24;97970.97;;;33.35;30.77
36242;BME280;22283;42.748;12.732;2023-07-13T06:11:26;97949.50;;;33.64;30.46
36242;BME280;22283;42.748;12.732;2023-07-13T06:16:28;97975.38;;;34.36;29.65
36242;BME280;22283;42.748;12.732;2023-07-13T06:21:28;97960.13;;;34.81;29.27
36242;BME280;22283;42.748;12.732;2023-07-13T06:26:29;97973.34;;;34.89;29.69
36242;BME280;22283;42.748;12.732;2023-07-13T06:31:30;97983.81;;;35.17;29.88
36242;BME280;22283;42.748;12.732;2023-07-13T06:36:31;97968.88;;;34.62;30.08
36242;BME280;22283;42.748;12.732;2023-07-13T06:41:32;97955.16;;;34.57;30.03
36242;BME280;22283;42.748;12.732;2023-07-13T06:46:33;97968.41;;;35.11;29.71
36242;BME280;22283;42.748;12.732;2023-07-13T06:51:37;97974.47;;;35.18;29.54
36242;BME280;22283;42.748;12.732;2023-07-13T06:56:38;97985.19;;;35.20;29.68
36242;BME280;22283;42.748;12.732;2023-07-13T07:01:38;97977.75;;;35.00;29.43
36242;BME280;22283;42.748;12.732;2023-07-13T07:06:39;97964.00;;;34.85;29.94
36242;BME280;22283;42.748;12.732;2023-07-13T07:11:40;97967.34;;;35.12;29.65
36242;BME280;22283;42.748;12.732;2023-07-13T07:16:40;97960.16;;;35.52;29.51
36242;BME280;22283;42.748;12.732;2023-07-13T07:21:41;97956.28;;;35.58;29.59
36242;BME280;22283;42.748;12.732;2023-07-13T07:26:48;97965.00;;;35.96;29.20
36242;BME280;22283;42.748;12.732;2023-07-13T07:31:49;97965.53;;;36.03;29.13
36242;BME280;22283;42.748;12.732;2023-07-13T07:36:49;97943.50;;;36.03;29.50
36242;BME280;22283;42.748;12.732;2023-07-13T07:41:50;97942.25;;;34.73;29.81
36242;BME280;22283;42.748;12.732;2023-07-13T07:46:51;97946.34;;;33.45;32.09
36242;BME280;22283;42.748;12.732;2023-07-13T07:51:52;97968.22;;;33.77;31.22
36242;BME280;22283;42.748;12.732;2023-07-13T07:56:53;97914.38;;;33.61;32.11
36242;BME280;22283;42.748;12.732;2023-07-13T08:01:54;97926.00;;;33.41;32.49
36242;BME280;22283;42.748;12.732;2023-07-13T08:06:54;97953.09;;;33.27;32.31
36242;BME280;22283;42.748;12.732;2023-07-13T08:11:56;97960.97;;;34.03;32.44
36242;BME280;22283;42.748;12.732;2023-07-13T08:16:57;97976.66;;;34.13;32.35
36242;BME280;22283;42.748;12.732;2023-07-13T08:21:58;97968.31;;;34.55;31.33
36242;BME280;22283;42.748;12.732;2023-07-13T08:26:58;97960.53;;;34.37;31.58
36242;BME280;22283;42.748;12.732;2023-07-13T08:31:59;97961.81;;;35.07;31.55
36242;BME280;22283;42.748;12.732;2023-07-13T08:37:00;97974.41;;;34.83;30.83
36242;BME280;22283;42.748;12.732;2023-07-13T08:42:05;97958.47;;;34.69;31.10
36242;BME280;22283;42.748;12.732;2023-07-13T08:47:09;97927.69;;;34.83;31.10
36242;BME280;22283;42.748;12.732;2023-07-13T08:52:30;97946.25;;;34.30;31.61
36242;BME280;22283;42.748;12.732;2023-07-13T08:57:34;97930.38;;;34.47;31.71
36242;BME280;22283;42.748;12.732;2023-07-13T09:02:51;97927.03;;;34.30;31.56
36242;BME280;22283;42.748;12.732;2023-07-13T09:13:45;97979.16;;;34.19;31.90
36242;BME280;22283;42.748;12.732;2023-07-13T09:18:54;97981.41;;;34.33;32.13
36242;BME280;22283;42.748;12.732;2023-07-13T09:24:01;97994.50;;;35.70;31.24
36242;BME280;22283;42.748;12.732;2023-07-13T09:29:32;97961.75;;;36.54;29.30
36242;BME280;22283;42.748;12.732;2023-07-13T09:34:34;97953.06;;;37.15;28.50
36242;BME280;22283;42.748;12.732;2023-07-13T09:39:46;97941.25;;;37.38;28.74
36242;BME280;22283;42.748;12.732;2023-07-13T09:44:55;97926.31;;;37.15;28.64
36242;BME280;22283;42.748;12.732;2023-07-13T09:49:59;97909.63;;;37.26;28.45
36242;BME280;22283;42.748;12.732;2023-07-13T09:55:10;97924.25;;;36.97;28.81
36242;BME280;22283;42.748;12.732;2023-07-13T10:00:26;97912.31;;;37.89;28.31
36242;BME280;22283;42.748;12.732;2023-07-13T10:05:27;97902.06;;;37.65;27.71
36242;BME280;22283;42.748;12.732;2023-07-13T10:10:28;97903.13;;;37.46;28.33
36242;BME280;22283;42.748;12.732;2023-07-13T10:15:29;97861.84;;;37.06;28.62
36242;BME280;22283;42.748;12.732;2023-07-13T10:20:29;97861.75;;;37.16;28.77
36242;BME280;22283;42.748;12.732;2023-07-13T10:25:34;97869.09;;;36.97;29.08
36242;BME280;22283;42.748;12.732;2023-07-13T10:30:40;97894.31;;;37.44;29.46
36242;BME280;22283;42.748;12.732;2023-07-13T10:35:43;97916.41;;;37.44;28.76
36242;BME280;22283;42.748;12.732;2023-07-13T10:41:06;97945.66;;;37.10;29.43
36242;BME280;22283;42.748;12.732;2023-07-13T10:46:11;97948.28;;;36.86;29.24
36242;BME280;22283;42.748;12.732;2023-07-13T10:51:14;97956.03;;;37.82;28.73
36242;BME280;22283;42.748;12.732;2023-07-13T10:56:29;97966.66;;;38.18;28.11
36242;BME280;22283;42.748;12.732;2023-07-13T11:01:40;97961.44;;;37.34;28.34
36242;BME280;22283;42.748;12.732;2023-07-13T11:06:42;97996.34;;;36.15;30.09
36242;BME280;22283;42.748;12.732;2023-07-13T11:11:46;98012.16;;;35.28;30.87
36242;BME280;22283;42.748;12.732;2023-07-13T11:16:47;98016.25;;;35.26;31.37
36242;BME280;22283;42.748;12.732;2023-07-13T11:22:24;98007.72;;;35.27;31.64
36242;BME280;22283;42.748;12.732;2023-07-13T11:27:41;98017.06;;;35.16;32.21
36242;BME280;22283;42.748;12.732;2023-07-13T11:32:43;97979.13;;;35.03;32.22
36242;BME280;22283;42.748;12.732;2023-07-13T11:37:45;97985.91;;;34.49;32.88
36242;BME280;22283;42.748;12.732;2023-07-13T11:42:47;97999.91;;;34.53;33.08
36242;BME280;22283;42.748;12.732;2023-07-13T11:47:49;97994.72;;;34.61;32.99
36242;BME280;22283;42.748;12.732;2023-07-13T11:52:52;97987.47;;;34.35;33.02
36242;BME280;22283;42.748;12.732;2023-07-13T11:57:57;97956.09;;;34.20;33.89
36242;BME280;22283;42.748;12.732;2023-07-13T12:03:00;97945.69;;;34.33;34.20
36242;BME280;22283;42.748;12.732;2023-07-13T12:08:12;97964.97;;;34.43;34.09
36242;BME280;22283;42.748;12.732;2023-07-13T12:13:15;97943.00;;;34.43;33.95
36242;BME280;22283;42.748;12.732;2023-07-13T12:18:19;97946.91;;;34.67;33.72
36242;BME280;22283;42.748;12.732;2023-07-13T12:23:24;97945.00;;;34.88;33.27
36242;BME280;22283;42.748;12.732;2023-07-13T12:28:38;97958.25;;;35.17;33.13
36242;BME280;22283;42.748;12.732;2023-07-13T12:33:39;97955.69;;;35.82;32.11
36242;BME280;22283;42.748;12.732;2023-07-13T12:38:45;97959.81;;;36.54;31.77
36242;BME280;22283;42.748;12.732;2023-07-13T12:43:47;97962.88;;;36.42;32.24
36242;BME280;22283;42.748;12.732;2023-07-13T12:48:52;97957.91;;;36.89;31.55
36242;BME280;22283;42.748;12.732;2023-07-13T12:53:59;97960.91;;;37.03;31.59
36242;BME280;22283;42.748;12.732;2023-07-13T12:59:18;97951.31;;;36.95;30.88
36242;BME280;22283;42.748;12.732;2023-07-13T13:04:21;97949.75;;;36.79;30.97
36242;BME280;22283;42.748;12.732;2023-07-13T13:09:30;97951.00;;;36.52;32.55
36242;BME280;22283;42.748;12.732;2023-07-13T13:14:31;97948.44;;;37.05;32.20
36242;BME280;22283;42.748;12.732;2023-07-13T13:19:32;97943.13;;;36.75;33.00
36242;BME280;22283;42.748;12.732;2023-07-13T13:24:33;97943.81;;;36.56;33.30
36242;BME280;22283;42.748;12.732;2023-07-13T13:29:39;97950.03;;;36.28;33.92
36242;BME280;22283;42.748;12.732;2023-07-13T13:34:41;97935.66;;;36.31;34.23
36242;BME280;22283;42.748;12.732;2023-07-13T13:39:43;97926.47;;;36.56;33.81
36242;BME280;22283;42.748;12.732;2023-07-13T13:44:44;97945.13;;;36.14;35.84
36242;BME280;22283;42.748;12.732;2023-07-13T13:49:45;97935.25;;;36.03;35.33
36242;BME280;22283;42.748;12.732;2023-07-13T13:54:47;97928.13;;;35.87;35.92
36242;BME280;22283;42.748;12.732;2023-07-13T13:59:48;97930.91;;;35.82;36.39
36242;BME280;22283;42.748;12.732;2023-07-13T14:04:53;97917.22;;;35.36;36.61
36242;BME280;22283;42.748;12.732;2023-07-13T14:09:58;97911.47;;;35.53;37.28
36242;BME280;22283;42.748;12.732;2023-07-13T14:14:59;97912.28;;;35.43;36.79
36242;BME280;22283;42.748;12.732;2023-07-13T14:20:00;97917.22;;;35.36;37.13
36242;BME280;22283;42.748;12.732;2023-07-13T14:25:00;97906.78;;;35.38;37.27
36242;BME280;22283;42.748;12.732;2023-07-13T14:30:01;97910.09;;;35.35;37.72
36242;BME280;22283;42.748;12.732;2023-07-13T14:35:02;97902.94;;;35.54;37.39
36242;BME280;22283;42.748;12.732;2023-07-13T14:40:15;97913.94;;;35.23;37.71
36242;BME280;22283;42.748;12.732;2023-07-13T14:45:19;97906.28;;;35.20;38.43
36242;BME280;22283;42.748;12.732;2023-07-13T14:50:26;97899.13;;;35.14;38.65
36242;BME280;22283;42.748;12.732;2023-07-13T14:55:29;97899.41;;;35.18;38.89
36242;BME280;22283;42.748;12.732;2023-07-13T15:00:30;97900.78;;;35.20;39.04
36242;BME280;22283;42.748;12.732;2023-07-13T15:05:32;97901.56;;;35.36;38.63
36242;BME280;22283;42.748;12.732;2023-07-13T15:10:33;97887.88;;;35.01;38.48
36242;BME280;22283;42.748;12.732;2023-07-13T15:15:35;97899.66;;;34.96;38.51
36242;BME280;22283;42.748;12.732;2023-07-13T15:20:37;97910.66;;;35.21;38.44
36242;BME280;22283;42.748;12.732;2023-07-13T15:25:38;97900.22;;;35.08;38.08
36242;BME280;22283;42.748;12.732;2023-07-13T15:30:41;97909.84;;;34.90;38.29
36242;BME280;22283;42.748;12.732;2023-07-13T15:35:43;97910.34;;;34.52;38.32
36242;BME280;22283;42.748;12.732;2023-07-13T15:40:45;97918.28;;;34.48;38.76
36242;BME280;22283;42.748;12.732;2023-07-13T15:45:46;97918.81;;;34.30;39.68
36242;BME280;22283;42.748;12.732;2023-07-13T15:50:50;97915.34;;;33.92;40.40
36242;BME280;22283;42.748;12.732;2023-07-13T15:55:51;97916.91;;;33.77;40.53
36242;BME280;22283;42.748;12.732;2023-07-13T16:00:52;97923.78;;;33.75;40.83
36242;BME280;22283;42.748;12.732;2023-07-13T16:05:57;97912.81;;;33.80;41.24
36242;BME280;22283;42.748;12.732;2023-07-13T16:10:59;97923.59;;;33.97;41.73
36242;BME280;22283;42.748;12.732;2023-07-13T16:16:00;97935.50;;;33.60;41.08
36242;BME280;22283;42.748;12.732;2023-07-13T16:21:01;97930.69;;;33.88;40.99
36242;BME280;22283;42.748;12.732;2023-07-13T16:26:01;97926.22;;;33.71;42.83
36242;BME280;22283;42.748;12.732;2023-07-13T16:31:03;97933.09;;;33.74;42.23
36242;BME280;22283;42.748;12.732;2023-07-13T16:36:10;97944.69;;;33.44;44.20
36242;BME280;22283;42.748;12.732;2023-07-13T16:41:11;97947.34;;;33.34;44.25
36242;BME280;22283;42.748;12.732;2023-07-13T16:46:15;97946.81;;;33.37;44.91
36242;BME280;22283;42.748;12.732;2023-07-13T16:51:19;97951.81;;;33.45;44.85
36242;BME280;22283;42.748;12.732;2023-07-13T16:56:19;97955.50;;;33.18;45.06
36242;BME280;22283;42.748;12.732;2023-07-13T17:01:20;97954.75;;;32.96;46.09
36242;BME280;22283;42.748;12.732;2023-07-13T17:06:24;97962.44;;;32.72;46.34
36242;BME280;22283;42.748;12.732;2023-07-13T17:11:25;97959.13;;;32.43;47.19
36242;BME280;22283;42.748;12.732;2023-07-13T17:16:27;97967.75;;;32.35;46.33
36242;BME280;22283;42.748;12.732;2023-07-13T17:21:28;97972.81;;;32.21;47.67
36242;BME280;22283;42.748;12.732;2023-07-13T17:26:29;97981.91;;;32.04;48.35
36242;BME280;22283;42.748;12.732;2023-07-13T17:31:30;97977.34;;;31.88;48.15
36242;BME280;22283;42.748;12.732;2023-07-13T17:36:31;97983.22;;;31.63;47.53
36242;BME280;22283;42.748;12.732;2023-07-13T17:41:34;97986.09;;;31.34;48.41
36242;BME280;22283;42.748;12.732;2023-07-13T17:46:38;97977.03;;;31.17;48.88
36242;BME280;22283;42.748;12.732;2023-07-13T17:51:39;97972.63;;;30.99;49.50
36242;BME280;22283;42.748;12.732;2023-07-13T17:56:41;97973.88;;;30.63;50.13
36242;BME280;22283;42.748;12.732;2023-07-13T18:01:42;97969.84;;;30.37;51.07
36242;BME280;22283;42.748;12.732;2023-07-13T18:06:46;97958.13;;;30.13;52.51
36242;BME280;22283;42.748;12.732;2023-07-13T18:11:53;97951.56;;;29.85;53.81
36242;BME280;22283;42.748;12.732;2023-07-13T18:16:56;97961.00;;;29.66;55.09
36242;BME280;22283;42.748;12.732;2023-07-13T18:22:03;97962.03;;;29.41;56.77
36242;BME280;22283;42.748;12.732;2023-07-13T18:27:10;97967.56;;;29.00;58.59
36242;BME280;22283;42.748;12.732;2023-07-13T18:32:18;97972.59;;;28.84;59.67
36242;BME280;22283;42.748;12.732;2023-07-13T18:37:21;97967.91;;;28.61;61.24
36242;BME280;22283;42.748;12.732;2023-07-13T18:42:25;97975.22;;;28.49;62.60
36242;BME280;22283;42.748;12.732;2023-07-13T18:47:26;97978.41;;;28.28;63.75
36242;BME280;22283;42.748;12.732;2023-07-13T18:52:33;97979.03;;;28.11;65.21
36242;BME280;22283;42.748;12.732;2023-07-13T18:57:33;97985.94;;;27.96;66.13
36242;BME280;22283;42.748;12.732;2023-07-13T19:02:34;97992.56;;;27.81;67.25
36242;BME280;22283;42.748;12.732;2023-07-13T19:07:35;97993.88;;;27.72;68.12
36242;BME280;22283;42.748;12.732;2023-07-13T19:12:35;98005.78;;;27.71;68.75
36242;BME280;22283;42.748;12.732;2023-07-13T19:17:37;98009.72;;;27.57;69.46
36242;BME280;22283;42.748;12.732;2023-07-13T19:22:38;98016.47;;;27.48;70.08
36242;BME280;22283;42.748;12.732;2023-07-13T19:27:39;98018.25;;;27.35;70.58
36242;BME280;22283;42.748;12.732;2023-07-13T19:32:41;98034.25;;;27.25;71.66
36242;BME280;22283;42.748;12.732;2023-07-13T19:37:42;98050.97;;;27.22;71.49
36242;BME280;22283;42.748;12.732;2023-07-13T19:42:42;98052.69;;;27.10;72.00
36242;BME280;22283;42.748;12.732;2023-07-13T19:47:43;98061.31;;;27.00;72.37
36242;BME280;22283;42.748;12.732;2023-07-13T19:52:48;98069.09;;;26.96;72.61
36242;BME280;22283;42.748;12.732;2023-07-13T19:57:50;98088.31;;;26.95;73.61
36242;BME280;22283;42.748;12.732;2023-07-13T20:02:52;98105.06;;;26.85;74.59
36242;BME280;22283;42.748;12.732;2023-07-13T20:07:59;98109.47;;;26.80;75.61
36242;BME280;22283;42.748;12.732;2023-07-13T20:13:00;98106.81;;;26.73;75.88
36242;BME280;22283;42.748;12.732;2023-07-13T20:18:01;98112.47;;;26.65;76.64
36242;BME280;22283;42.748;12.732;2023-07-13T20:23:11;98107.28;;;26.57;77.52
36242;BME280;22283;42.748;12.732;2023-07-13T20:28:12;98108.38;;;26.49;78.63
36242;BME280;22283;42.748;12.732;2023-07-13T20:33:19;98112.13;;;26.41;79.29
36242;BME280;22283;42.748;12.732;2023-07-13T20:38:25;98124.44;;;26.37;80.51
36242;BME280;22283;42.748;12.732;2023-07-13T20:43:26;98128.81;;;26.38;79.79
36242;BME280;22283;42.748;12.732;2023-07-13T20:48:45;98130.31;;;26.21;81.53
36242;BME280;22283;42.748;12.732;2023-07-13T20:53:52;98123.06;;;26.02;82.96
36242;BME280;22283;42.748;12.732;2023-07-13T20:58:55;98121.22;;;25.82;84.75
36242;BME280;22283;42.748;12.732;2023-07-13T21:04:02;98124.53;;;25.71;85.67
36242;BME280;22283;42.748;12.732;2023-07-13T21:09:13;98123.25;;;25.60;86.51
36242;BME280;22283;42.748;12.732;2023-07-13T21:14:16;98137.44;;;25.56;86.94
36242;BME280;22283;42.748;12.732;2023-07-13T21:19:17;98138.25;;;25.49;87.58
36242;BME280;22283;42.748;12.732;2023-07-13T21:24:18;98139.69;;;25.32;88.83
36242;BME280;22283;42.748;12.732;2023-07-13T21:29:19;98150.34;;;25.40;88.75
36242;BME280;22283;42.748;12.732;2023-07-13T21:34:20;98156.59;;;25.34;89.12
36242;BME280;22283;42.748;12.732;2023-07-13T21:39:22;98153.25;;;25.32;88.51
36242;BME280;22283;42.748;12.732;2023-07-13T21:44:28;98169.91;;;25.36;88.36
36242;BME280;22283;42.748;12.732;2023-07-13T21:49:29;98165.31;;;25.30;87.56
36242;BME280;22283;42.748;12.732;2023-07-13T21:54:31;98168.63;;;25.25;87.29
36242;BME280;22283;42.748;12.732;2023-07-13T21:59:31;98164.06;;;25.19;87.89
36242;BME280;22283;42.748;12.732;2023-07-13T22:04:33;98168.22;;;25.15;89.29
36242;BME280;22283;42.748;12.732;2023-07-13T22:09:34;98167.97;;;25.10;89.79
36242;BME280;22283;42.748;12.732;2023-07-13T22:14:35;98167.69;;;24.98;90.43
36242;BME280;22283;42.748;12.732;2023-07-13T22:19:35;98172.47;;;24.89;91.33
36242;BME280;22283;42.748;12.732;2023-07-13T22:24:37;98175.13;;;24.76;92.42
36242;BME280;22283;42.748;12.732;2023-07-13T22:29:38;98166.91;;;24.63;93.80
36242;BME280;22283;42.748;12.732;2023-07-13T22:34:39;98174.81;;;24.58;94.02
36242;BME280;22283;42.748;12.732;2023-07-13T22:39:40;98174.16;;;24.49;94.71
36242;BME280;22283;42.748;12.732;2023-07-13T22:44:40;98168.06;;;24.40;95.48
36242;BME280;22283;42.748;12.732;2023-07-13T22:49:42;98171.13;;;24.37;95.94
36242;BME280;22283;42.748;12.732;2023-07-13T22:54:42;98166.94;;;24.28;96.10
36242;BME280;22283;42.748;12.732;2023-07-13T22:59:43;98160.88;;;24.26;96.38
36242;BME280;22283;42.748;12.732;2023-07-13T23:04:44;98162.69;;;24.19;96.17
36242;BME280;22283;42.748;12.732;2023-07-13T23:09:49;98160.00;;;24.19;96.05
36242;BME280;22283;42.748;12.732;2023-07-13T23:14:50;98165.41;;;24.19;95.95
36242;BME280;22283;42.748;12.732;2023-07-13T23:19:50;98163.06;;;24.09;96.79
36242;BME280;22283;42.748;12.732;2023-07-13T23:24:51;98163.81;;;23.96;97.51
36242;BME280;22283;42.748;12.732;2023-07-13T23:29:52;98152.56;;;23.93;97.09
36242;BME280;22283;42.748;12.732;2023-07-13T23:34:53;98147.09;;;23.86;97.37
36242;BME280;22283;42.748;12.732;2023-07-13T23:39:54;98149.13;;;23.77;97.68
36242;BME280;22283;42.748;12.732;2023-07-13T23:44:55;98162.94;;;23.68;98.45
36242;BME280;22283;42.748;12.732;2023-07-13T23:49:58;98166.34;;;23.55;98.87
36242;BME280;22283;42.748;12.732;2023-07-13T23:55:18;98178.75;;;23.49;99.76
